sensor_id;sensor_type;location;lat;lon;timestamp;P1;durP1;ratioP1;P2;durP2;ratioP2
11677;SDS011;5895;41.950;24.372;2023-10-31T00:02:21;2.83;;;1.90;;
11677;SDS011;5895;41.950;24.372;2023-10-31T00:04:50;3.80;;;1.80;;
11677;SDS011;5895;41.950;24.372;2023-10-31T00:07:17;2.75;;;2.20;;
11677;SDS011;5895;41.950;24.372;2023-10-31T00:09:44;3.65;;;1.85;;
11677;SDS011;5895;41.950;24.372;2023-10-31T00:12:11;4.47;;;1.90;;
11677;SDS011;5895;41.950;24.372;2023-10-31T00:14:38;2.30;;;1.88;;
11677;SDS011;5895;41.950;24.372;2023-10-31T00:17:05;3.42;;;2.00;;
11677;SDS011;5895;41.950;24.372;2023-10-31T00:19:32;3.72;;;1.77;;
11677;SDS011;5895;41.950;24.372;2023-10-31T00:22:01;2.65;;;1.83;;
11677;SDS011;5895;41.950;24.372;2023-10-31T00:24:28;4.15;;;1.80;;
11677;SDS011;5895;41.950;24.372;2023-10-31T00:26:57;4.03;;;1.90;;
11677;SDS011;5895;41.950;24.372;2023-10-31T00:29:24;2.20;;;1.95;;
11677;SDS011;5895;41.950;24.372;2023-10-31T00:31:51;2.45;;;1.95;;
11677;SDS011;5895;41.950;24.372;2023-10-31T00:34:18;2.03;;;1.75;;
11677;SDS011;5895;41.950;24.372;2023-10-31T00:36:45;3.42;;;2.10;;
11677;SDS011;5895;41.950;24.372;2023-10-31T00:39:14;3.67;;;1.65;;
11677;SDS011;5895;41.950;24.372;2023-10-31T00:41:43;3.17;;;1.60;;
11677;SDS011;5895;41.950;24.372;2023-10-31T00:44:11;2.80;;;1.55;;
11677;SDS011;5895;41.950;24.372;2023-10-31T00:46:38;4.60;;;1.80;;
11677;SDS011;5895;41.950;24.372;2023-10-31T00:49:05;1.98;;;1.50;;
11677;SDS011;5895;41.950;24.372;2023-10-31T00:51:32;2.47;;;1.65;;
11677;SDS011;5895;41.950;24.372;2023-10-31T00:53:59;2.40;;;1.70;;
11677;SDS011;5895;41.950;24.372;2023-10-31T00:56:28;2.30;;;1.60;;
11677;SDS011;5895;41.950;24.372;2023-10-31T00:58:55;5.00;;;1.85;;
11677;SDS011;5895;41.950;24.372;2023-10-31T01:01:22;2.80;;;1.75;;
11677;SDS011;5895;41.950;24.372;2023-10-31T01:03:49;3.38;;;1.95;;
11677;SDS011;5895;41.950;24.372;2023-10-31T01:06:16;3.83;;;1.85;;
11677;SDS011;5895;41.950;24.372;2023-10-31T01:08:43;2.50;;;1.83;;
11677;SDS011;5895;41.950;24.372;2023-10-31T01:11:10;3.88;;;1.70;;
11677;SDS011;5895;41.950;24.372;2023-10-31T01:13:38;2.72;;;1.60;;
11677;SDS011;5895;41.950;24.372;2023-10-31T01:16:05;3.10;;;1.70;;
11677;SDS011;5895;41.950;24.372;2023-10-31T01:18:33;2.00;;;1.63;;
11677;SDS011;5895;41.950;24.372;2023-10-31T01:21:00;1.58;;;1.48;;
11677;SDS011;5895;41.950;24.372;2023-10-31T01:23:27;2.65;;;1.85;;
11677;SDS011;5895;41.950;24.372;2023-10-31T01:25:54;2.90;;;1.80;;
11677;SDS011;5895;41.950;24.372;2023-10-31T01:28:21;2.53;;;1.75;;
11677;SDS011;5895;41.950;24.372;2023-10-31T01:30:49;2.55;;;1.77;;
11677;SDS011;5895;41.950;24.372;2023-10-31T01:33:16;3.30;;;1.73;;
11677;SDS011;5895;41.950;24.372;2023-10-31T01:35:43;2.22;;;1.77;;
11677;SDS011;5895;41.950;24.372;2023-10-31T01:38:10;2.75;;;1.73;;
11677;SDS011;5895;41.950;24.372;2023-10-31T01:40:37;3.42;;;2.17;;
11677;SDS011;5895;41.950;24.372;2023-10-31T01:43:05;3.30;;;2.10;;
11677;SDS011;5895;41.950;24.372;2023-10-31T01:45:32;4.18;;;2.60;;
11677;SDS011;5895;41.950;24.372;2023-10-31T01:48:00;3.63;;;2.17;;
11677;SDS011;5895;41.950;24.372;2023-10-31T01:50:27;3.33;;;2.03;;
11677;SDS011;5895;41.950;24.372;2023-10-31T01:52:55;4.10;;;1.98;;
11677;SDS011;5895;41.950;24.372;2023-10-31T01:55:22;2.17;;;1.80;;
11677;SDS011;5895;41.950;24.372;2023-10-31T01:57:52;2.33;;;1.60;;
11677;SDS011;5895;41.950;24.372;2023-10-31T02:00:20;1.73;;;1.60;;
11677;SDS011;5895;41.950;24.372;2023-10-31T02:02:48;1.67;;;1.50;;
11677;SDS011;5895;41.950;24.372;2023-10-31T02:05:19;1.98;;;1.50;;
11677;SDS011;5895;41.950;24.372;2023-10-31T02:07:46;2.45;;;1.42;;
11677;SDS011;5895;41.950;24.372;2023-10-31T02:10:14;2.47;;;1.58;;
11677;SDS011;5895;41.950;24.372;2023-10-31T02:12:41;2.50;;;1.55;;
11677;SDS011;5895;41.950;24.372;2023-10-31T02:15:09;1.77;;;1.45;;
11677;SDS011;5895;41.950;24.372;2023-10-31T02:17:36;1.58;;;1.30;;
11677;SDS011;5895;41.950;24.372;2023-10-31T02:20:04;1.92;;;1.55;;
11677;SDS011;5895;41.950;24.372;2023-10-31T02:22:33;2.35;;;1.65;;
11677;SDS011;5895;41.950;24.372;2023-10-31T02:25:00;1.60;;;1.30;;
11677;SDS011;5895;41.950;24.372;2023-10-31T02:27:27;2.22;;;1.65;;
11677;SDS011;5895;41.950;24.372;2023-10-31T02:29:54;2.42;;;1.40;;
11677;SDS011;5895;41.950;24.372;2023-10-31T02:32:21;1.45;;;1.35;;
11677;SDS011;5895;41.950;24.372;2023-10-31T02:34:49;1.55;;;1.27;;
11677;SDS011;5895;41.950;24.372;2023-10-31T02:37:16;2.38;;;1.52;;
11677;SDS011;5895;41.950;24.372;2023-10-31T02:39:44;2.25;;;1.40;;
11677;SDS011;5895;41.950;24.372;2023-10-31T02:42:11;2.25;;;1.63;;
11677;SDS011;5895;41.950;24.372;2023-10-31T02:44:38;2.50;;;1.60;;
11677;SDS011;5895;41.950;24.372;2023-10-31T02:47:05;2.35;;;1.40;;
11677;SDS011;5895;41.950;24.372;2023-10-31T02:49:32;3.03;;;1.58;;
11677;SDS011;5895;41.950;24.372;2023-10-31T02:51:59;2.67;;;1.60;;
11677;SDS011;5895;41.950;24.372;2023-10-31T02:54:26;5.07;;;1.60;;
11677;SDS011;5895;41.950;24.372;2023-10-31T02:56:54;6.90;;;1.63;;
11677;SDS011;5895;41.950;24.372;2023-10-31T02:59:22;3.80;;;1.83;;
11677;SDS011;5895;41.950;24.372;2023-10-31T03:01:49;1.70;;;1.50;;
11677;SDS011;5895;41.950;24.372;2023-10-31T03:04:16;3.45;;;1.65;;
11677;SDS011;5895;41.950;24.372;2023-10-31T03:06:43;2.72;;;2.00;;
11677;SDS011;5895;41.950;24.372;2023-10-31T03:09:10;2.92;;;1.65;;
11677;SDS011;5895;41.950;24.372;2023-10-31T03:11:37;2.15;;;1.60;;
11677;SDS011;5895;41.950;24.372;2023-10-31T03:14:05;2.17;;;1.70;;
11677;SDS011;5895;41.950;24.372;2023-10-31T03:16:32;2.58;;;1.80;;
11677;SDS011;5895;41.950;24.372;2023-10-31T03:18:59;3.47;;;1.70;;
11677;SDS011;5895;41.950;24.372;2023-10-31T03:21:26;3.50;;;1.60;;
11677;SDS011;5895;41.950;24.372;2023-10-31T03:23:53;3.35;;;1.60;;
11677;SDS011;5895;41.950;24.372;2023-10-31T03:26:20;3.03;;;1.55;;
11677;SDS011;5895;41.950;24.372;2023-10-31T03:28:48;1.50;;;1.40;;
11677;SDS011;5895;41.950;24.372;2023-10-31T03:31:16;1.90;;;1.40;;
11677;SDS011;5895;41.950;24.372;2023-10-31T03:33:43;3.53;;;1.98;;
11677;SDS011;5895;41.950;24.372;2023-10-31T03:36:10;2.92;;;1.77;;
11677;SDS011;5895;41.950;24.372;2023-10-31T03:38:37;2.60;;;1.65;;
11677;SDS011;5895;41.950;24.372;2023-10-31T03:41:05;2.10;;;1.67;;
11677;SDS011;5895;41.950;24.372;2023-10-31T03:43:32;2.97;;;1.50;;
11677;SDS011;5895;41.950;24.372;2023-10-31T03:45:59;1.90;;;1.50;;
11677;SDS011;5895;41.950;24.372;2023-10-31T03:48:27;2.10;;;1.52;;
11677;SDS011;5895;41.950;24.372;2023-10-31T03:50:54;1.70;;;1.60;;
11677;SDS011;5895;41.950;24.372;2023-10-31T03:53:21;4.43;;;1.70;;
11677;SDS011;5895;41.950;24.372;2023-10-31T03:55:48;1.88;;;1.38;;
11677;SDS011;5895;41.950;24.372;2023-10-31T03:58:15;1.52;;;1.38;;
11677;SDS011;5895;41.950;24.372;2023-10-31T04:00:42;1.52;;;1.40;;
11677;SDS011;5895;41.950;24.372;2023-10-31T04:03:09;1.70;;;1.50;;
11677;SDS011;5895;41.950;24.372;2023-10-31T04:05:38;3.47;;;1.85;;
11677;SDS011;5895;41.950;24.372;2023-10-31T04:08:05;2.70;;;1.92;;
11677;SDS011;5895;41.950;24.372;2023-10-31T04:10:32;2.78;;;1.45;;
11677;SDS011;5895;41.950;24.372;2023-10-31T04:12:59;1.42;;;1.33;;
11677;SDS011;5895;41.950;24.372;2023-10-31T04:15:26;2.20;;;1.90;;
11677;SDS011;5895;41.950;24.372;2023-10-31T04:17:53;2.35;;;1.95;;
11677;SDS011;5895;41.950;24.372;2023-10-31T04:20:20;1.50;;;1.38;;
11677;SDS011;5895;41.950;24.372;2023-10-31T04:22:48;2.10;;;1.60;;
11677;SDS011;5895;41.950;24.372;2023-10-31T04:25:15;5.10;;;3.17;;
11677;SDS011;5895;41.950;24.372;2023-10-31T04:27:42;9.88;;;7.38;;
11677;SDS011;5895;41.950;24.372;2023-10-31T04:30:10;5.38;;;3.00;;
11677;SDS011;5895;41.950;24.372;2023-10-31T04:32:37;6.38;;;4.55;;
11677;SDS011;5895;41.950;24.372;2023-10-31T04:35:05;12.25;;;6.00;;
11677;SDS011;5895;41.950;24.372;2023-10-31T04:37:32;6.20;;;5.28;;
11677;SDS011;5895;41.950;24.372;2023-10-31T04:40:00;9.13;;;7.53;;
11677;SDS011;5895;41.950;24.372;2023-10-31T04:42:28;13.25;;;11.82;;
11677;SDS011;5895;41.950;24.372;2023-10-31T04:44:55;15.95;;;13.10;;
11677;SDS011;5895;41.950;24.372;2023-10-31T04:47:22;6.70;;;4.80;;
11677;SDS011;5895;41.950;24.372;2023-10-31T04:49:49;7.43;;;5.25;;
11677;SDS011;5895;41.950;24.372;2023-10-31T04:52:16;8.70;;;5.60;;
11677;SDS011;5895;41.950;24.372;2023-10-31T04:54:45;9.35;;;7.30;;
11677;SDS011;5895;41.950;24.372;2023-10-31T04:57:13;14.23;;;12.60;;
11677;SDS011;5895;41.950;24.372;2023-10-31T04:59:40;11.80;;;9.98;;
11677;SDS011;5895;41.950;24.372;2023-10-31T05:02:07;7.72;;;6.93;;
11677;SDS011;5895;41.950;24.372;2023-10-31T05:04:37;7.88;;;5.53;;
11677;SDS011;5895;41.950;24.372;2023-10-31T05:07:05;6.43;;;5.65;;
11677;SDS011;5895;41.950;24.372;2023-10-31T05:09:32;7.40;;;6.70;;
11677;SDS011;5895;41.950;24.372;2023-10-31T05:11:59;10.13;;;9.05;;
11677;SDS011;5895;41.950;24.372;2023-10-31T05:14:28;8.80;;;7.90;;
11677;SDS011;5895;41.950;24.372;2023-10-31T05:16:55;8.20;;;6.90;;
11677;SDS011;5895;41.950;24.372;2023-10-31T05:19:22;6.90;;;5.28;;
11677;SDS011;5895;41.950;24.372;2023-10-31T05:21:49;17.85;;;15.15;;
11677;SDS011;5895;41.950;24.372;2023-10-31T05:24:16;15.05;;;13.45;;
11677;SDS011;5895;41.950;24.372;2023-10-31T05:26:43;5.35;;;3.92;;
11677;SDS011;5895;41.950;24.372;2023-10-31T05:29:10;20.13;;;17.85;;
11677;SDS011;5895;41.950;24.372;2023-10-31T05:31:38;22.35;;;19.42;;
11677;SDS011;5895;41.950;24.372;2023-10-31T05:34:06;12.60;;;10.63;;
11677;SDS011;5895;41.950;24.372;2023-10-31T05:36:33;12.82;;;9.05;;
11677;SDS011;5895;41.950;24.372;2023-10-31T05:39:01;23.77;;;19.05;;
11677;SDS011;5895;41.950;24.372;2023-10-31T05:41:28;18.45;;;13.32;;
11677;SDS011;5895;41.950;24.372;2023-10-31T05:43:55;12.13;;;10.90;;
11677;SDS011;5895;41.950;24.372;2023-10-31T05:46:22;10.65;;;7.28;;
11677;SDS011;5895;41.950;24.372;2023-10-31T05:48:50;15.30;;;11.70;;
11677;SDS011;5895;41.950;24.372;2023-10-31T05:51:18;10.43;;;7.43;;
11677;SDS011;5895;41.950;24.372;2023-10-31T05:53:45;8.85;;;5.85;;
11677;SDS011;5895;41.950;24.372;2023-10-31T05:56:14;5.25;;;3.65;;
11677;SDS011;5895;41.950;24.372;2023-10-31T05:58:42;5.88;;;3.80;;
11677;SDS011;5895;41.950;24.372;2023-10-31T06:01:09;6.18;;;5.28;;
11677;SDS011;5895;41.950;24.372;2023-10-31T06:03:36;8.10;;;6.00;;
11677;SDS011;5895;41.950;24.372;2023-10-31T06:06:05;6.78;;;4.57;;
11677;SDS011;5895;41.950;24.372;2023-10-31T06:08:33;13.65;;;9.25;;
11677;SDS011;5895;41.950;24.372;2023-10-31T06:11:00;12.68;;;4.57;;
11677;SDS011;5895;41.950;24.372;2023-10-31T06:13:27;5.55;;;2.58;;
11677;SDS011;5895;41.950;24.372;2023-10-31T06:15:56;6.40;;;2.47;;
11677;SDS011;5895;41.950;24.372;2023-10-31T06:18:24;6.00;;;2.80;;
11677;SDS011;5895;41.950;24.372;2023-10-31T06:20:51;11.68;;;4.75;;
11677;SDS011;5895;41.950;24.372;2023-10-31T06:23:20;13.10;;;8.30;;
11677;SDS011;5895;41.950;24.372;2023-10-31T06:25:47;8.57;;;5.45;;
11677;SDS011;5895;41.950;24.372;2023-10-31T06:28:14;14.35;;;11.73;;
11677;SDS011;5895;41.950;24.372;2023-10-31T06:30:41;23.20;;;14.85;;
11677;SDS011;5895;41.950;24.372;2023-10-31T06:33:08;13.43;;;10.40;;
11677;SDS011;5895;41.950;24.372;2023-10-31T06:35:35;12.35;;;6.57;;
11677;SDS011;5895;41.950;24.372;2023-10-31T06:38:02;6.18;;;3.80;;
11677;SDS011;5895;41.950;24.372;2023-10-31T06:40:31;5.75;;;3.42;;
11677;SDS011;5895;41.950;24.372;2023-10-31T06:42:58;2.92;;;1.80;;
11677;SDS011;5895;41.950;24.372;2023-10-31T06:45:25;4.50;;;1.90;;
11677;SDS011;5895;41.950;24.372;2023-10-31T06:47:52;6.07;;;2.33;;
11677;SDS011;5895;41.950;24.372;2023-10-31T06:50:20;3.38;;;1.70;;
11677;SDS011;5895;41.950;24.372;2023-10-31T06:52:47;4.07;;;2.00;;
11677;SDS011;5895;41.950;24.372;2023-10-31T06:55:14;5.30;;;2.22;;
11677;SDS011;5895;41.950;24.372;2023-10-31T06:57:43;5.35;;;1.77;;
11677;SDS011;5895;41.950;24.372;2023-10-31T07:00:10;2.58;;;1.67;;
11677;SDS011;5895;41.950;24.372;2023-10-31T07:02:38;2.20;;;1.60;;
11677;SDS011;5895;41.950;24.372;2023-10-31T07:05:05;4.63;;;2.03;;
11677;SDS011;5895;41.950;24.372;2023-10-31T07:07:33;7.60;;;1.98;;
11677;SDS011;5895;41.950;24.372;2023-10-31T07:10:00;4.00;;;1.80;;
11677;SDS011;5895;41.950;24.372;2023-10-31T07:12:27;4.22;;;1.80;;
11677;SDS011;5895;41.950;24.372;2023-10-31T07:14:55;6.10;;;2.10;;
11677;SDS011;5895;41.950;24.372;2023-10-31T07:17:23;3.65;;;2.00;;
11677;SDS011;5895;41.950;24.372;2023-10-31T07:19:50;6.05;;;1.75;;
11677;SDS011;5895;41.950;24.372;2023-10-31T07:22:17;3.38;;;1.77;;
11677;SDS011;5895;41.950;24.372;2023-10-31T07:24:44;3.97;;;1.60;;
11677;SDS011;5895;41.950;24.372;2023-10-31T07:27:11;4.00;;;1.80;;
11677;SDS011;5895;41.950;24.372;2023-10-31T07:29:39;5.70;;;1.65;;
11677;SDS011;5895;41.950;24.372;2023-10-31T07:32:08;4.80;;;1.70;;
11677;SDS011;5895;41.950;24.372;2023-10-31T07:34:35;6.03;;;1.70;;
11677;SDS011;5895;41.950;24.372;2023-10-31T07:37:02;3.40;;;1.60;;
11677;SDS011;5895;41.950;24.372;2023-10-31T07:39:30;3.17;;;1.80;;
11677;SDS011;5895;41.950;24.372;2023-10-31T07:41:57;2.60;;;1.80;;
11677;SDS011;5895;41.950;24.372;2023-10-31T07:44:24;4.22;;;1.40;;
11677;SDS011;5895;41.950;24.372;2023-10-31T07:46:51;4.13;;;1.60;;
11677;SDS011;5895;41.950;24.372;2023-10-31T07:49:19;5.10;;;1.60;;
11677;SDS011;5895;41.950;24.372;2023-10-31T07:51:47;3.92;;;1.60;;
11677;SDS011;5895;41.950;24.372;2023-10-31T07:54:15;3.90;;;1.80;;
11677;SDS011;5895;41.950;24.372;2023-10-31T07:56:42;3.50;;;2.15;;
11677;SDS011;5895;41.950;24.372;2023-10-31T07:59:10;2.42;;;1.50;;
11677;SDS011;5895;41.950;24.372;2023-10-31T08:01:37;3.13;;;1.55;;
11677;SDS011;5895;41.950;24.372;2023-10-31T08:04:04;4.10;;;1.65;;
11677;SDS011;5895;41.950;24.372;2023-10-31T08:06:33;3.10;;;1.48;;
11677;SDS011;5895;41.950;24.372;2023-10-31T08:09:00;5.38;;;2.03;;
11677;SDS011;5895;41.950;24.372;2023-10-31T08:11:27;3.35;;;1.55;;
11677;SDS011;5895;41.950;24.372;2023-10-31T08:13:55;6.05;;;1.70;;
11677;SDS011;5895;41.950;24.372;2023-10-31T08:16:22;3.63;;;1.60;;
11677;SDS011;5895;41.950;24.372;2023-10-31T08:18:49;3.05;;;1.50;;
11677;SDS011;5895;41.950;24.372;2023-10-31T08:21:16;3.58;;;1.50;;
11677;SDS011;5895;41.950;24.372;2023-10-31T08:23:45;2.72;;;1.60;;
11677;SDS011;5895;41.950;24.372;2023-10-31T08:26:12;3.65;;;1.60;;
11677;SDS011;5895;41.950;24.372;2023-10-31T08:28:39;5.80;;;1.80;;
11677;SDS011;5895;41.950;24.372;2023-10-31T08:31:06;2.60;;;1.60;;
11677;SDS011;5895;41.950;24.372;2023-10-31T08:33:33;4.72;;;1.75;;
11677;SDS011;5895;41.950;24.372;2023-10-31T08:36:00;2.00;;;1.27;;
11677;SDS011;5895;41.950;24.372;2023-10-31T08:38:27;3.88;;;1.55;;
11677;SDS011;5895;41.950;24.372;2023-10-31T08:40:57;3.33;;;1.60;;
11677;SDS011;5895;41.950;24.372;2023-10-31T08:43:25;4.03;;;1.67;;
11677;SDS011;5895;41.950;24.372;2023-10-31T08:45:51;2.38;;;1.30;;
11677;SDS011;5895;41.950;24.372;2023-10-31T08:48:18;2.47;;;1.30;;
11677;SDS011;5895;41.950;24.372;2023-10-31T08:50:45;3.60;;;1.40;;
11677;SDS011;5895;41.950;24.372;2023-10-31T08:53:12;2.72;;;1.60;;
11677;SDS011;5895;41.950;24.372;2023-10-31T08:55:39;3.85;;;1.92;;
11677;SDS011;5895;41.950;24.372;2023-10-31T08:58:10;3.72;;;1.75;;
11677;SDS011;5895;41.950;24.372;2023-10-31T09:00:38;2.67;;;1.30;;
11677;SDS011;5895;41.950;24.372;2023-10-31T09:03:05;4.45;;;1.55;;
11677;SDS011;5895;41.950;24.372;2023-10-31T09:05:33;1.60;;;1.40;;
11677;SDS011;5895;41.950;24.372;2023-10-31T09:08:00;5.22;;;1.65;;
11677;SDS011;5895;41.950;24.372;2023-10-31T09:10:27;7.20;;;1.45;;
11677;SDS011;5895;41.950;24.372;2023-10-31T09:12:54;3.00;;;1.25;;
11677;SDS011;5895;41.950;24.372;2023-10-31T09:15:22;3.78;;;1.55;;
11677;SDS011;5895;41.950;24.372;2023-10-31T09:17:49;2.35;;;1.40;;
11677;SDS011;5895;41.950;24.372;2023-10-31T09:20:16;3.33;;;1.40;;
11677;SDS011;5895;41.950;24.372;2023-10-31T09:22:44;2.20;;;1.50;;
11677;SDS011;5895;41.950;24.372;2023-10-31T09:25:11;2.67;;;1.20;;
11677;SDS011;5895;41.950;24.372;2023-10-31T09:27:39;2.78;;;1.23;;
11677;SDS011;5895;41.950;24.372;2023-10-31T09:30:07;2.20;;;1.50;;
11677;SDS011;5895;41.950;24.372;2023-10-31T09:32:36;2.25;;;1.38;;
11677;SDS011;5895;41.950;24.372;2023-10-31T09:35:03;3.13;;;1.50;;
11677;SDS011;5895;41.950;24.372;2023-10-31T09:37:31;4.05;;;1.73;;
11677;SDS011;5895;41.950;24.372;2023-10-31T09:39:58;3.55;;;1.40;;
11677;SDS011;5895;41.950;24.372;2023-10-31T09:42:25;1.80;;;1.17;;
11677;SDS011;5895;41.950;24.372;2023-10-31T09:44:52;2.85;;;1.20;;
11677;SDS011;5895;41.950;24.372;2023-10-31T09:47:20;3.35;;;1.70;;
11677;SDS011;5895;41.950;24.372;2023-10-31T09:49:49;2.53;;;1.60;;
11677;SDS011;5895;41.950;24.372;2023-10-31T09:52:17;3.30;;;1.40;;
11677;SDS011;5895;41.950;24.372;2023-10-31T09:54:45;4.28;;;1.23;;
11677;SDS011;5895;41.950;24.372;2023-10-31T09:57:15;2.70;;;1.42;;
11677;SDS011;5895;41.950;24.372;2023-10-31T09:59:43;3.53;;;1.50;;
11677;SDS011;5895;41.950;24.372;2023-10-31T10:02:10;2.97;;;1.50;;
11677;SDS011;5895;41.950;24.372;2023-10-31T10:04:37;2.22;;;1.30;;
11677;SDS011;5895;41.950;24.372;2023-10-31T10:07:06;2.78;;;1.13;;
11677;SDS011;5895;41.950;24.372;2023-10-31T10:09:33;2.42;;;1.30;;
11677;SDS011;5895;41.950;24.372;2023-10-31T10:12:00;1.50;;;1.30;;
11677;SDS011;5895;41.950;24.372;2023-10-31T10:14:28;2.13;;;1.27;;
11677;SDS011;5895;41.950;24.372;2023-10-31T10:16:56;1.73;;;1.35;;
11677;SDS011;5895;41.950;24.372;2023-10-31T10:19:24;1.83;;;1.20;;
11677;SDS011;5895;41.950;24.372;2023-10-31T10:21:51;3.55;;;1.20;;
11677;SDS011;5895;41.950;24.372;2023-10-31T10:24:21;2.13;;;1.50;;
11677;SDS011;5895;41.950;24.372;2023-10-31T10:26:49;3.55;;;1.10;;
11677;SDS011;5895;41.950;24.372;2023-10-31T10:29:16;2.35;;;1.40;;
11677;SDS011;5895;41.950;24.372;2023-10-31T10:31:43;1.30;;;1.20;;
11677;SDS011;5895;41.950;24.372;2023-10-31T10:34:12;1.38;;;1.10;;
11677;SDS011;5895;41.950;24.372;2023-10-31T10:36:41;2.65;;;1.25;;
11677;SDS011;5895;41.950;24.372;2023-10-31T10:39:12;4.20;;;1.38;;
11677;SDS011;5895;41.950;24.372;2023-10-31T10:41:46;3.67;;;1.45;;
11677;SDS011;5895;41.950;24.372;2023-10-31T10:44:18;1.58;;;1.15;;
11677;SDS011;5895;41.950;24.372;2023-10-31T10:46:51;4.43;;;1.35;;
11677;SDS011;5895;41.950;24.372;2023-10-31T10:49:22;1.70;;;1.25;;
11677;SDS011;5895;41.950;24.372;2023-10-31T10:51:52;2.33;;;1.23;;
11677;SDS011;5895;41.950;24.372;2023-10-31T10:54:25;2.35;;;1.20;;
11677;SDS011;5895;41.950;24.372;2023-10-31T10:57:02;1.08;;;1.00;;
11677;SDS011;5895;41.950;24.372;2023-10-31T10:59:39;1.42;;;1.10;;
11677;SDS011;5895;41.950;24.372;2023-10-31T11:02:08;1.67;;;1.02;;
11677;SDS011;5895;41.950;24.372;2023-10-31T11:04:39;1.33;;;1.20;;
11677;SDS011;5895;41.950;24.372;2023-10-31T11:07:09;3.65;;;1.13;;
11677;SDS011;5895;41.950;24.372;2023-10-31T11:09:36;2.08;;;1.27;;
11677;SDS011;5895;41.950;24.372;2023-10-31T11:12:06;1.90;;;1.10;;
11677;SDS011;5895;41.950;24.372;2023-10-31T11:14:35;2.85;;;1.25;;
11677;SDS011;5895;41.950;24.372;2023-10-31T11:17:06;2.35;;;1.02;;
11677;SDS011;5895;41.950;24.372;2023-10-31T11:19:48;1.92;;;1.20;;
11677;SDS011;5895;41.950;24.372;2023-10-31T11:22:17;1.20;;;1.10;;
11677;SDS011;5895;41.950;24.372;2023-10-31T11:24:44;1.33;;;1.08;;
11677;SDS011;5895;41.950;24.372;2023-10-31T11:27:13;1.45;;;1.02;;
11677;SDS011;5895;41.950;24.372;2023-10-31T11:29:40;2.03;;;1.27;;
11677;SDS011;5895;41.950;24.372;2023-10-31T11:32:08;1.55;;;1.30;;
11677;SDS011;5895;41.950;24.372;2023-10-31T11:34:36;2.80;;;1.13;;
11677;SDS011;5895;41.950;24.372;2023-10-31T11:37:17;2.08;;;1.30;;
11677;SDS011;5895;41.950;24.372;2023-10-31T11:42:49;1.33;;;1.10;;
11677;SDS011;5895;41.950;24.372;2023-10-31T11:45:27;1.95;;;1.20;;
11677;SDS011;5895;41.950;24.372;2023-10-31T11:47:56;2.53;;;1.20;;
11677;SDS011;5895;41.950;24.372;2023-10-31T11:50:23;1.50;;;1.10;;
11677;SDS011;5895;41.950;24.372;2023-10-31T11:53:00;2.08;;;1.17;;
11677;SDS011;5895;41.950;24.372;2023-10-31T11:55:30;1.55;;;1.10;;
11677;SDS011;5895;41.950;24.372;2023-10-31T11:58:13;1.38;;;1.10;;
11677;SDS011;5895;41.950;24.372;2023-10-31T12:00:44;1.20;;;1.10;;
11677;SDS011;5895;41.950;24.372;2023-10-31T12:03:11;1.80;;;1.00;;
11677;SDS011;5895;41.950;24.372;2023-10-31T12:05:39;1.02;;;0.93;;
11677;SDS011;5895;41.950;24.372;2023-10-31T12:08:06;1.73;;;1.10;;
11677;SDS011;5895;41.950;24.372;2023-10-31T12:10:33;1.02;;;1.00;;
11677;SDS011;5895;41.950;24.372;2023-10-31T12:13:00;3.70;;;1.10;;
11677;SDS011;5895;41.950;24.372;2023-10-31T12:15:28;2.00;;;1.05;;
11677;SDS011;5895;41.950;24.372;2023-10-31T12:17:58;1.65;;;1.10;;
11677;SDS011;5895;41.950;24.372;2023-10-31T12:20:26;1.13;;;1.00;;
11677;SDS011;5895;41.950;24.372;2023-10-31T12:23:02;1.65;;;1.10;;
11677;SDS011;5895;41.950;24.372;2023-10-31T12:25:30;4.15;;;1.48;;
11677;SDS011;5895;41.950;24.372;2023-10-31T12:28:00;1.25;;;0.95;;
11677;SDS011;5895;41.950;24.372;2023-10-31T12:30:28;2.35;;;1.08;;
11677;SDS011;5895;41.950;24.372;2023-10-31T12:32:55;1.20;;;1.08;;
11677;SDS011;5895;41.950;24.372;2023-10-31T12:35:23;1.92;;;1.15;;
11677;SDS011;5895;41.950;24.372;2023-10-31T12:37:52;3.17;;;1.33;;
11677;SDS011;5895;41.950;24.372;2023-10-31T12:40:21;1.88;;;1.33;;
11677;SDS011;5895;41.950;24.372;2023-10-31T12:42:49;2.03;;;1.00;;
11677;SDS011;5895;41.950;24.372;2023-10-31T12:45:17;3.42;;;1.20;;
11677;SDS011;5895;41.950;24.372;2023-10-31T12:47:59;2.33;;;1.15;;
11677;SDS011;5895;41.950;24.372;2023-10-31T12:50:27;1.20;;;1.10;;
11677;SDS011;5895;41.950;24.372;2023-10-31T12:52:54;2.67;;;1.35;;
11677;SDS011;5895;41.950;24.372;2023-10-31T12:55:23;2.83;;;1.23;;
11677;SDS011;5895;41.950;24.372;2023-10-31T12:57:51;1.20;;;1.10;;
11677;SDS011;5895;41.950;24.372;2023-10-31T13:00:19;2.95;;;1.27;;
11677;SDS011;5895;41.950;24.372;2023-10-31T13:02:58;1.20;;;1.10;;
11677;SDS011;5895;41.950;24.372;2023-10-31T13:05:26;2.85;;;1.25;;
11677;SDS011;5895;41.950;24.372;2023-10-31T13:07:54;4.93;;;1.00;;
11677;SDS011;5895;41.950;24.372;2023-10-31T13:10:25;1.52;;;1.10;;
11677;SDS011;5895;41.950;24.372;2023-10-31T13:12:53;1.50;;;1.00;;
11677;SDS011;5895;41.950;24.372;2023-10-31T13:15:22;1.13;;;1.02;;
11677;SDS011;5895;41.950;24.372;2023-10-31T13:17:52;1.55;;;1.30;;
11677;SDS011;5895;41.950;24.372;2023-10-31T13:20:19;2.83;;;1.40;;
11677;SDS011;5895;41.950;24.372;2023-10-31T13:22:47;1.90;;;1.20;;
11677;SDS011;5895;41.950;24.372;2023-10-31T13:25:15;2.38;;;1.38;;
11677;SDS011;5895;41.950;24.372;2023-10-31T13:27:42;2.90;;;1.30;;
11677;SDS011;5895;41.950;24.372;2023-10-31T13:30:15;5.43;;;1.33;;
11677;SDS011;5895;41.950;24.372;2023-10-31T13:32:43;1.90;;;1.13;;
11677;SDS011;5895;41.950;24.372;2023-10-31T13:35:11;3.70;;;1.17;;
11677;SDS011;5895;41.950;24.372;2023-10-31T13:37:40;2.05;;;1.15;;
11677;SDS011;5895;41.950;24.372;2023-10-31T13:40:07;2.47;;;1.30;;
11677;SDS011;5895;41.950;24.372;2023-10-31T13:42:34;2.10;;;1.20;;
11677;SDS011;5895;41.950;24.372;2023-10-31T13:45:02;1.33;;;1.20;;
11677;SDS011;5895;41.950;24.372;2023-10-31T13:47:29;2.90;;;1.30;;
11677;SDS011;5895;41.950;24.372;2023-10-31T13:49:56;2.17;;;1.40;;
11677;SDS011;5895;41.950;24.372;2023-10-31T13:52:25;1.35;;;1.25;;
11677;SDS011;5895;41.950;24.372;2023-10-31T13:54:52;2.33;;;1.40;;
11677;SDS011;5895;41.950;24.372;2023-10-31T13:57:19;2.60;;;1.35;;
11677;SDS011;5895;41.950;24.372;2023-10-31T13:59:47;2.33;;;1.33;;
11677;SDS011;5895;41.950;24.372;2023-10-31T14:02:14;2.58;;;1.30;;
11677;SDS011;5895;41.950;24.372;2023-10-31T14:04:42;4.55;;;1.20;;
11677;SDS011;5895;41.950;24.372;2023-10-31T14:07:10;1.88;;;1.52;;
11677;SDS011;5895;41.950;24.372;2023-10-31T14:09:43;2.72;;;1.00;;
11677;SDS011;5895;41.950;24.372;2023-10-31T14:12:10;4.35;;;1.65;;
11677;SDS011;5895;41.950;24.372;2023-10-31T14:14:37;3.03;;;1.42;;
11677;SDS011;5895;41.950;24.372;2023-10-31T14:17:04;1.40;;;1.30;;
11677;SDS011;5895;41.950;24.372;2023-10-31T14:19:31;2.97;;;1.30;;
11677;SDS011;5895;41.950;24.372;2023-10-31T14:21:58;9.25;;;1.38;;
11677;SDS011;5895;41.950;24.372;2023-10-31T14:24:26;2.28;;;1.17;;
11677;SDS011;5895;41.950;24.372;2023-10-31T14:26:54;1.90;;;1.27;;
11677;SDS011;5895;41.950;24.372;2023-10-31T14:29:22;3.55;;;1.38;;
11677;SDS011;5895;41.950;24.372;2023-10-31T14:31:49;1.83;;;1.13;;
11677;SDS011;5895;41.950;24.372;2023-10-31T14:34:16;3.45;;;1.20;;
11677;SDS011;5895;41.950;24.372;2023-10-31T14:36:43;3.00;;;1.35;;
11677;SDS011;5895;41.950;24.372;2023-10-31T14:39:10;2.03;;;1.20;;
11677;SDS011;5895;41.950;24.372;2023-10-31T14:41:37;1.75;;;1.58;;
11677;SDS011;5895;41.950;24.372;2023-10-31T14:44:05;1.98;;;1.10;;
11677;SDS011;5895;41.950;24.372;2023-10-31T14:46:33;3.53;;;1.42;;
11677;SDS011;5895;41.950;24.372;2023-10-31T14:49:00;1.83;;;1.20;;
11677;SDS011;5895;41.950;24.372;2023-10-31T14:51:28;1.75;;;1.10;;
11677;SDS011;5895;41.950;24.372;2023-10-31T14:53:55;1.85;;;1.30;;